sensor_id;sensor_type;location;lat;lon;timestamp;pressure;altitude;pressure_sealevel;temperature;humidity
20160;BME280;50187;50.492;12.134;2024-01-07T00:02:41;97100.72;;;20.00;34.46
20160;BME280;50187;50.492;12.134;2024-01-07T00:05:26;97098.19;;;19.98;34.27
20160;BME280;50187;50.492;12.134;2024-01-07T00:08:11;97101.41;;;19.94;34.38
20160;BME280;50187;50.492;12.134;2024-01-07T00:10:57;97099.56;;;19.94;34.52
20160;BME280;50187;50.492;12.134;2024-01-07T00:13:45;97107.13;;;19.99;34.09
20160;BME280;50187;50.492;12.134;2024-01-07T00:16:31;97106.28;;;19.98;34.15
20160;BME280;50187;50.492;12.134;2024-01-07T00:19:16;97109.81;;;19.99;34.06
20160;BME280;50187;50.492;12.134;2024-01-07T00:22:02;97112.69;;;19.97;34.37
20160;BME280;50187;50.492;12.134;2024-01-07T00:24:47;97107.47;;;19.96;34.28
20160;BME280;50187;50.492;12.134;2024-01-07T00:27:32;97121.81;;;19.96;34.37
20160;BME280;50187;50.492;12.134;2024-01-07T00:30:18;97115.22;;;19.99;34.29
20160;BME280;50187;50.492;12.134;2024-01-07T00:33:04;97126.03;;;19.99;34.19
20160;BME280;50187;50.492;12.134;2024-01-07T00:35:50;97119.78;;;19.98;34.38
20160;BME280;50187;50.492;12.134;2024-01-07T00:38:35;97125.66;;;20.02;34.12
20160;BME280;50187;50.492;12.134;2024-01-07T00:41:21;97125.84;;;20.00;34.37
20160;BME280;50187;50.492;12.134;2024-01-07T00:44:06;97124.84;;;20.01;34.19
20160;BME280;50187;50.492;12.134;2024-01-07T00:46:51;97121.28;;;20.01;34.17
20160;BME280;50187;50.492;12.134;2024-01-07T00:49:37;97125.84;;;20.00;34.26
20160;BME280;50187;50.492;12.134;2024-01-07T00:52:24;97126.84;;;19.99;34.03
20160;BME280;50187;50.492;12.134;2024-01-07T00:55:10;97137.66;;;19.99;34.17
20160;BME280;50187;50.492;12.134;2024-01-07T00:57:55;97137.47;;;20.01;34.30
20160;BME280;50187;50.492;12.134;2024-01-07T01:00:41;97140.69;;;19.96;34.22
20160;BME280;50187;50.492;12.134;2024-01-07T01:03:26;97140.53;;;19.98;34.15
20160;BME280;50187;50.492;12.134;2024-01-07T01:06:12;97142.03;;;20.00;34.22
20160;BME280;50187;50.492;12.134;2024-01-07T01:08:57;97146.44;;;20.01;34.22
20160;BME280;50187;50.492;12.134;2024-01-07T01:11:43;97143.56;;;20.03;34.26
20160;BME280;50187;50.492;12.134;2024-01-07T01:14:28;97151.66;;;20.03;34.29
20160;BME280;50187;50.492;12.134;2024-01-07T01:17:14;97148.97;;;20.03;34.08
20160;BME280;50187;50.492;12.134;2024-01-07T01:20:00;97158.25;;;20.00;34.09
20160;BME280;50187;50.492;12.134;2024-01-07T01:22:45;97162.81;;;20.00;34.42
20160;BME280;50187;50.492;12.134;2024-01-07T01:25:30;97166.50;;;19.99;34.30
20160;BME280;50187;50.492;12.134;2024-01-07T01:28:16;97163.81;;;19.99;34.39
20160;BME280;50187;50.492;12.134;2024-01-07T01:31:01;97174.63;;;19.99;34.05
20160;BME280;50187;50.492;12.134;2024-01-07T01:33:47;97178.16;;;19.99;34.03
20160;BME280;50187;50.492;12.134;2024-01-07T01:36:32;97186.94;;;20.01;34.34
20160;BME280;50187;50.492;12.134;2024-01-07T01:39:18;97180.19;;;19.97;34.08
20160;BME280;50187;50.492;12.134;2024-01-07T01:42:04;97193.34;;;20.00;33.99
20160;BME280;50187;50.492;12.134;2024-01-07T01:44:49;97181.19;;;19.96;34.39
20160;BME280;50187;50.492;12.134;2024-01-07T01:47:35;97178.31;;;19.98;34.25
20160;BME280;50187;50.492;12.134;2024-01-07T01:50:20;97183.72;;;19.98;34.06
20160;BME280;50187;50.492;12.134;2024-01-07T01:53:06;97175.28;;;20.01;34.05
20160;BME280;50187;50.492;12.134;2024-01-07T01:55:51;97180.53;;;20.02;33.92
20160;BME280;50187;50.492;12.134;2024-01-07T01:58:36;97179.66;;;20.02;34.16
20160;BME280;50187;50.492;12.134;2024-01-07T02:01:25;97179.00;;;20.00;34.18
20160;BME280;50187;50.492;12.134;2024-01-07T02:04:11;97191.47;;;20.01;33.95
20160;BME280;50187;50.492;12.134;2024-01-07T02:06:57;97189.63;;;20.01;34.04
20160;BME280;50187;50.492;12.134;2024-01-07T02:09:42;97194.34;;;19.99;34.13
20160;BME280;50187;50.492;12.134;2024-01-07T02:12:28;97187.09;;;20.00;34.18
20160;BME280;50187;50.492;12.134;2024-01-07T02:15:15;97195.56;;;19.97;34.25
20160;BME280;50187;50.492;12.134;2024-01-07T02:18:00;97199.09;;;19.97;34.29
20160;BME280;50187;50.492;12.134;2024-01-07T02:20:46;97199.91;;;19.98;34.04
20160;BME280;50187;50.492;12.134;2024-01-07T02:23:32;97193.69;;;19.97;34.24
20160;BME280;50187;50.492;12.134;2024-01-07T02:26:17;97209.72;;;19.99;33.94
20160;BME280;50187;50.492;12.134;2024-01-07T02:29:03;97208.00;;;19.98;34.03
20160;BME280;50187;50.492;12.134;2024-01-07T02:31:48;97213.06;;;20.01;33.88
20160;BME280;50187;50.492;12.134;2024-01-07T02:34:34;97207.00;;;19.99;34.14
20160;BME280;50187;50.492;12.134;2024-01-07T02:37:20;97210.72;;;19.98;34.16
20160;BME280;50187;50.492;12.134;2024-01-07T02:40:06;97215.28;;;19.97;34.08
20160;BME280;50187;50.492;12.134;2024-01-07T02:42:52;97209.72;;;19.99;34.21
20160;BME280;50187;50.492;12.134;2024-01-07T02:45:37;97207.00;;;19.99;34.11
20160;BME280;50187;50.492;12.134;2024-01-07T02:48:23;97203.47;;;19.98;34.12
20160;BME280;50187;50.492;12.134;2024-01-07T02:51:08;97214.94;;;20.00;34.13
20160;BME280;50187;50.492;12.134;2024-01-07T02:53:54;97214.94;;;20.00;34.09
20160;BME280;50187;50.492;12.134;2024-01-07T02:56:39;97210.53;;;19.99;33.97
20160;BME280;50187;50.492;12.134;2024-01-07T02:59:25;97218.81;;;19.98;34.22
20160;BME280;50187;50.492;12.134;2024-01-07T03:02:10;97224.22;;;19.98;34.01
20160;BME280;50187;50.492;12.134;2024-01-07T03:04:56;97219.50;;;20.00;34.04
20160;BME280;50187;50.492;12.134;2024-01-07T03:07:41;97224.72;;;20.01;33.80
20160;BME280;50187;50.492;12.134;2024-01-07T03:10:26;97226.25;;;20.04;33.88
20160;BME280;50187;50.492;12.134;2024-01-07T03:13:12;97218.16;;;19.96;33.82
20160;BME280;50187;50.492;12.134;2024-01-07T03:15:57;97232.81;;;20.01;33.87
20160;BME280;50187;50.492;12.134;2024-01-07T03:18:43;97254.59;;;20.00;34.03
20160;BME280;50187;50.492;12.134;2024-01-07T03:21:28;97242.09;;;19.99;33.88
20160;BME280;50187;50.492;12.134;2024-01-07T03:24:13;97239.41;;;19.99;33.91
20160;BME280;50187;50.492;12.134;2024-01-07T03:26:59;97241.09;;;20.00;34.07
20160;BME280;50187;50.492;12.134;2024-01-07T03:29:44;97233.66;;;20.02;34.03
20160;BME280;50187;50.492;12.134;2024-01-07T03:32:30;97241.75;;;20.02;33.71
20160;BME280;50187;50.492;12.134;2024-01-07T03:35:15;97246.50;;;20.00;33.79
20160;BME280;50187;50.492;12.134;2024-01-07T03:38:01;97238.41;;;20.00;34.00
20160;BME280;50187;50.492;12.134;2024-01-07T03:40:46;97243.97;;;19.98;34.07
20160;BME280;50187;50.492;12.134;2024-01-07T03:43:32;97246.50;;;20.00;33.84
20160;BME280;50187;50.492;12.134;2024-01-07T03:46:18;97247.50;;;19.99;33.86
20160;BME280;50187;50.492;12.134;2024-01-07T03:49:04;97247.69;;;19.97;33.85
20160;BME280;50187;50.492;12.134;2024-01-07T03:51:49;97253.91;;;19.98;34.03
20160;BME280;50187;50.492;12.134;2024-01-07T03:54:35;97256.25;;;20.01;33.67
20160;BME280;50187;50.492;12.134;2024-01-07T03:57:20;97257.28;;;20.00;33.73
20160;BME280;50187;50.492;12.134;2024-01-07T04:00:06;97243.97;;;19.90;33.76
20160;BME280;50187;50.492;12.134;2024-01-07T04:02:53;97250.38;;;19.97;33.84
20160;BME280;50187;50.492;12.134;2024-01-07T04:05:38;97269.75;;;20.01;33.67
20160;BME280;50187;50.492;12.134;2024-01-07T04:08:23;97258.13;;;20.00;33.90
20160;BME280;50187;50.492;12.134;2024-01-07T04:11:09;97271.81;;;19.99;33.70
20160;BME280;50187;50.492;12.134;2024-01-07T04:13:54;97266.06;;;20.02;33.82
20160;BME280;50187;50.492;12.134;2024-01-07T04:16:40;97269.28;;;19.97;33.70
20160;BME280;50187;50.492;12.134;2024-01-07T04:19:25;97268.09;;;20.00;33.52
20160;BME280;50187;50.492;12.134;2024-01-07T04:22:11;97275.84;;;20.03;33.67
20160;BME280;50187;50.492;12.134;2024-01-07T04:24:56;97266.22;;;20.00;33.65
20160;BME280;50187;50.492;12.134;2024-01-07T04:27:41;97268.59;;;20.03;33.65
20160;BME280;50187;50.492;12.134;2024-01-07T04:30:27;97273.50;;;20.00;33.75
20160;BME280;50187;50.492;12.134;2024-01-07T04:33:12;97270.63;;;20.01;33.64
20160;BME280;50187;50.492;12.134;2024-01-07T04:35:57;97273.31;;;20.01;33.73
20160;BME280;50187;50.492;12.134;2024-01-07T04:38:44;97282.94;;;20.04;33.67
20160;BME280;50187;50.492;12.134;2024-01-07T04:41:29;97288.53;;;20.02;33.42
20160;BME280;50187;50.492;12.134;2024-01-07T04:44:15;97290.88;;;20.05;33.73
20160;BME280;50187;50.492;12.134;2024-01-07T04:47:00;97286.81;;;20.01;33.59
20160;BME280;50187;50.492;12.134;2024-01-07T04:49:46;97294.06;;;20.01;33.49
20160;BME280;50187;50.492;12.134;2024-01-07T04:52:31;97294.06;;;20.01;33.48
20160;BME280;50187;50.492;12.134;2024-01-07T04:55:16;97300.16;;;20.03;33.39
20160;BME280;50187;50.492;12.134;2024-01-07T04:58:02;97303.84;;;20.02;33.57
20160;BME280;50187;50.492;12.134;2024-01-07T05:00:49;97317.53;;;20.00;33.39
20160;BME280;50187;50.492;12.134;2024-01-07T05:03:35;97310.94;;;20.03;33.33
20160;BME280;50187;50.492;12.134;2024-01-07T05:06:20;97312.31;;;20.07;33.33
20160;BME280;50187;50.492;12.134;2024-01-07T05:09:06;97320.22;;;20.08;33.47
20160;BME280;50187;50.492;12.134;2024-01-07T05:11:51;97314.66;;;20.10;33.43
20160;BME280;50187;50.492;12.134;2024-01-07T05:14:37;97325.28;;;20.12;33.35
20160;BME280;50187;50.492;12.134;2024-01-07T05:17:22;97319.72;;;20.13;33.24
20160;BME280;50187;50.492;12.134;2024-01-07T05:20:08;97335.28;;;20.19;33.06
20160;BME280;50187;50.492;12.134;2024-01-07T05:22:54;97339.31;;;20.23;33.28
20160;BME280;50187;50.492;12.134;2024-01-07T05:25:39;97336.63;;;20.23;33.22
20160;BME280;50187;50.492;12.134;2024-01-07T05:28:25;97340.97;;;20.24;33.09
20160;BME280;50187;50.492;12.134;2024-01-07T05:31:17;97340.97;;;20.24;33.03
20160;BME280;50187;50.492;12.134;2024-01-07T05:34:03;97348.91;;;20.26;32.90
20160;BME280;50187;50.492;12.134;2024-01-07T05:36:48;97352.66;;;20.25;33.28
20160;BME280;50187;50.492;12.134;2024-01-07T05:39:33;97352.31;;;20.20;33.17
20160;BME280;50187;50.492;12.134;2024-01-07T05:42:19;97357.34;;;20.23;33.00
20160;BME280;50187;50.492;12.134;2024-01-07T05:45:05;97356.69;;;20.21;32.94
20160;BME280;50187;50.492;12.134;2024-01-07T05:47:50;97358.38;;;20.22;33.16
20160;BME280;50187;50.492;12.134;2024-01-07T05:50:36;97364.97;;;20.19;33.24
20160;BME280;50187;50.492;12.134;2024-01-07T05:53:21;97368.69;;;20.18;33.10
20160;BME280;50187;50.492;12.134;2024-01-07T05:56:07;97377.13;;;20.15;33.30
20160;BME280;50187;50.492;12.134;2024-01-07T05:58:52;97376.44;;;20.13;33.24
20160;BME280;50187;50.492;12.134;2024-01-07T06:01:38;97369.31;;;20.12;33.00
20160;BME280;50187;50.492;12.134;2024-01-07T06:04:23;97381.16;;;20.11;33.16
20160;BME280;50187;50.492;12.134;2024-01-07T06:07:09;97387.91;;;20.07;33.14
20160;BME280;50187;50.492;12.134;2024-01-07T06:09:54;97387.56;;;20.10;33.28
20160;BME280;50187;50.492;12.134;2024-01-07T06:12:40;97390.25;;;20.10;33.16
20160;BME280;50187;50.492;12.134;2024-01-07T06:15:25;97393.63;;;20.12;33.18
20160;BME280;50187;50.492;12.134;2024-01-07T06:18:11;97393.50;;;20.14;32.97
20160;BME280;50187;50.492;12.134;2024-01-07T06:20:56;97392.47;;;20.15;33.16
20160;BME280;50187;50.492;12.134;2024-01-07T06:23:41;97397.69;;;20.16;33.09
20160;BME280;50187;50.492;12.134;2024-01-07T06:26:26;97394.00;;;20.17;32.82
20160;BME280;50187;50.492;12.134;2024-01-07T06:29:12;97400.09;;;20.19;32.83
20160;BME280;50187;50.492;12.134;2024-01-07T06:31:57;97405.31;;;20.21;32.99
20160;BME280;50187;50.492;12.134;2024-01-07T06:34:42;97412.25;;;20.23;32.94
20160;BME280;50187;50.492;12.134;2024-01-07T06:37:28;97408.69;;;20.23;32.80
20160;BME280;50187;50.492;12.134;2024-01-07T06:40:14;97417.94;;;20.20;32.93
20160;BME280;50187;50.492;12.134;2024-01-07T06:42:59;97418.66;;;20.22;32.88
20160;BME280;50187;50.492;12.134;2024-01-07T06:45:44;97438.56;;;20.21;32.89
20160;BME280;50187;50.492;12.134;2024-01-07T06:48:30;97434.50;;;20.17;32.96
20160;BME280;50187;50.492;12.134;2024-01-07T06:51:15;97428.44;;;20.15;32.84
20160;BME280;50187;50.492;12.134;2024-01-07T06:54:02;97450.19;;;20.14;32.89
20160;BME280;50187;50.492;12.134;2024-01-07T06:56:47;97451.19;;;20.13;33.08
20160;BME280;50187;50.492;12.134;2024-01-07T06:59:32;97445.81;;;20.13;32.96
20160;BME280;50187;50.492;12.134;2024-01-07T07:02:19;97452.38;;;20.10;32.81
20160;BME280;50187;50.492;12.134;2024-01-07T07:05:05;97460.63;;;20.08;33.03
20160;BME280;50187;50.492;12.134;2024-01-07T07:07:50;97463.50;;;20.07;32.98
20160;BME280;50187;50.492;12.134;2024-01-07T07:10:39;97461.81;;;20.06;32.81
20160;BME280;50187;50.492;12.134;2024-01-07T07:13:25;97469.75;;;20.07;32.84
20160;BME280;50187;50.492;12.134;2024-01-07T07:16:10;97475.13;;;20.07;32.68
20160;BME280;50187;50.492;12.134;2024-01-07T07:18:55;97481.41;;;20.08;32.77
20160;BME280;50187;50.492;12.134;2024-01-07T07:21:41;97479.03;;;20.13;32.75
20160;BME280;50187;50.492;12.134;2024-01-07T07:24:26;97487.84;;;20.15;32.70
20160;BME280;50187;50.492;12.134;2024-01-07T07:27:11;97487.50;;;20.18;32.81
20160;BME280;50187;50.492;12.134;2024-01-07T07:29:57;97482.59;;;20.22;32.50
20160;BME280;50187;50.492;12.134;2024-01-07T07:32:42;97492.94;;;20.27;32.64
20160;BME280;50187;50.492;12.134;2024-01-07T07:35:27;97498.16;;;20.28;32.50
20160;BME280;50187;50.492;12.134;2024-01-07T07:38:13;97499.00;;;20.29;32.66
20160;BME280;50187;50.492;12.134;2024-01-07T07:41:00;97506.44;;;20.27;32.40
20160;BME280;50187;50.492;12.134;2024-01-07T07:43:45;97507.78;;;20.22;32.57
20160;BME280;50187;50.492;12.134;2024-01-07T07:46:30;97506.78;;;20.23;32.41
20160;BME280;50187;50.492;12.134;2024-01-07T07:49:16;97517.72;;;20.22;32.54
20160;BME280;50187;50.492;12.134;2024-01-07T07:52:01;97519.03;;;20.18;32.74
20160;BME280;50187;50.492;12.134;2024-01-07T07:54:46;97517.38;;;20.17;32.77
20160;BME280;50187;50.492;12.134;2024-01-07T07:57:32;97526.81;;;20.13;32.75
20160;BME280;50187;50.492;12.134;2024-01-07T08:00:17;97530.34;;;20.13;32.62
20160;BME280;50187;50.492;12.134;2024-01-07T08:03:03;97539.63;;;20.11;32.50
20160;BME280;50187;50.492;12.134;2024-01-07T08:05:48;97536.41;;;20.07;32.82
20160;BME280;50187;50.492;12.134;2024-01-07T08:08:35;97546.50;;;20.05;32.51
20160;BME280;50187;50.492;12.134;2024-01-07T08:11:20;97551.09;;;20.04;32.55
20160;BME280;50187;50.492;12.134;2024-01-07T08:14:05;97561.72;;;20.06;32.79
20160;BME280;50187;50.492;12.134;2024-01-07T08:16:52;97563.59;;;20.05;32.85
20160;BME280;50187;50.492;12.134;2024-01-07T08:19:37;97574.06;;;20.08;32.77
20160;BME280;50187;50.492;12.134;2024-01-07T08:22:23;97567.00;;;20.16;32.52
20160;BME280;50187;50.492;12.134;2024-01-07T08:25:08;97564.97;;;20.18;32.88
20160;BME280;50187;50.492;12.134;2024-01-07T08:27:54;97573.94;;;20.18;32.57
20160;BME280;50187;50.492;12.134;2024-01-07T08:30:39;97570.91;;;20.21;32.59
20160;BME280;50187;50.492;12.134;2024-01-07T08:33:25;97583.22;;;20.24;32.70
20160;BME280;50187;50.492;12.134;2024-01-07T08:36:10;97570.22;;;20.28;32.31
20160;BME280;50187;50.492;12.134;2024-01-07T08:38:55;97577.66;;;20.25;32.62
20160;BME280;50187;50.492;12.134;2024-01-07T08:41:41;97577.50;;;20.27;32.46
20160;BME280;50187;50.492;12.134;2024-01-07T08:44:26;97582.22;;;20.25;32.28
20160;BME280;50187;50.492;12.134;2024-01-07T08:47:11;97589.47;;;20.24;32.18
20160;BME280;50187;50.492;12.134;2024-01-07T08:49:58;97585.91;;;20.16;32.27
20160;BME280;50187;50.492;12.134;2024-01-07T08:52:43;97595.69;;;20.17;32.19
20160;BME280;50187;50.492;12.134;2024-01-07T08:55:28;97597.88;;;20.13;32.31
20160;BME280;50187;50.492;12.134;2024-01-07T08:58:13;97605.97;;;20.13;32.37
20160;BME280;50187;50.492;12.134;2024-01-07T09:00:59;97605.47;;;20.10;32.43
20160;BME280;50187;50.492;12.134;2024-01-07T09:03:45;97602.22;;;20.06;32.58
20160;BME280;50187;50.492;12.134;2024-01-07T09:06:30;97608.94;;;20.02;32.36
20160;BME280;50187;50.492;12.134;2024-01-07T09:09:17;97609.66;;;20.04;32.48
20160;BME280;50187;50.492;12.134;2024-01-07T09:12:02;97603.38;;;20.03;32.43
20160;BME280;50187;50.492;12.134;2024-01-07T09:14:48;97607.25;;;20.01;32.48
20160;BME280;50187;50.492;12.134;2024-01-07T09:17:37;97607.94;;;20.03;32.75
20160;BME280;50187;50.492;12.134;2024-01-07T09:20:23;97620.78;;;20.09;32.41
20160;BME280;50187;50.492;12.134;2024-01-07T09:23:09;97603.59;;;20.10;32.42
20160;BME280;50187;50.492;12.134;2024-01-07T09:25:54;97607.66;;;20.14;32.27
20160;BME280;50187;50.492;12.134;2024-01-07T09:28:39;97622.53;;;20.18;32.38
20160;BME280;50187;50.492;12.134;2024-01-07T09:31:25;97634.72;;;20.22;32.27
20160;BME280;50187;50.492;12.134;2024-01-07T09:34:10;97640.13;;;20.22;32.51
20160;BME280;50187;50.492;12.134;2024-01-07T09:36:56;97635.06;;;20.28;32.28
20160;BME280;50187;50.492;12.134;2024-01-07T09:39:41;97633.22;;;20.28;32.22
20160;BME280;50187;50.492;12.134;2024-01-07T09:42:27;97631.34;;;20.29;32.19
20160;BME280;50187;50.492;12.134;2024-01-07T09:45:13;97633.56;;;20.25;32.28
20160;BME280;50187;50.492;12.134;2024-01-07T09:47:59;97638.09;;;20.24;32.16
20160;BME280;50187;50.492;12.134;2024-01-07T09:50:44;97636.72;;;20.20;32.22
20160;BME280;50187;50.492;12.134;2024-01-07T09:53:35;97630.81;;;20.17;32.15
20160;BME280;50187;50.492;12.134;2024-01-07T09:56:25;97639.91;;;20.16;32.23
20160;BME280;50187;50.492;12.134;2024-01-07T09:59:11;97642.06;;;20.12;32.39
20160;BME280;50187;50.492;12.134;2024-01-07T10:01:56;97645.41;;;20.06;32.39
20160;BME280;50187;50.492;12.134;2024-01-07T10:04:42;97640.34;;;20.03;32.21
20160;BME280;50187;50.492;12.134;2024-01-07T10:07:30;97641.88;;;20.05;32.45
20160;BME280;50187;50.492;12.134;2024-01-07T10:10:16;97646.59;;;20.03;32.28
20160;BME280;50187;50.492;12.134;2024-01-07T10:13:02;97647.44;;;20.04;32.38
20160;BME280;50187;50.492;12.134;2024-01-07T10:15:48;97648.28;;;20.04;32.21
20160;BME280;50187;50.492;12.134;2024-01-07T10:18:33;97644.59;;;20.05;32.53
20160;BME280;50187;50.492;12.134;2024-01-07T10:21:19;97646.97;;;20.08;32.44
20160;BME280;50187;50.492;12.134;2024-01-07T10:24:11;97659.97;;;20.13;32.35
20160;BME280;50187;50.492;12.134;2024-01-07T10:26:56;97674.84;;;20.17;32.13
20160;BME280;50187;50.492;12.134;2024-01-07T10:29:42;97660.34;;;20.18;32.32
20160;BME280;50187;50.492;12.134;2024-01-07T10:32:27;97655.16;;;20.25;32.30
20160;BME280;50187;50.492;12.134;2024-01-07T10:35:16;97654.47;;;20.23;32.16
20160;BME280;50187;50.492;12.134;2024-01-07T10:38:03;97657.69;;;20.27;32.34
20160;BME280;50187;50.492;12.134;2024-01-07T10:40:50;97661.22;;;20.27;31.99
20160;BME280;50187;50.492;12.134;2024-01-07T10:43:38;97668.34;;;20.28;32.17
20160;BME280;50187;50.492;12.134;2024-01-07T10:46:24;97660.84;;;20.22;32.28
20160;BME280;50187;50.492;12.134;2024-01-07T10:49:19;97668.13;;;20.21;31.87
20160;BME280;50187;50.492;12.134;2024-01-07T10:52:07;97664.88;;;20.18;32.10
20160;BME280;50187;50.492;12.134;2024-01-07T10:54:56;97666.06;;;20.15;32.14
20160;BME280;50187;50.492;12.134;2024-01-07T10:57:44;97673.63;;;20.12;32.10
20160;BME280;50187;50.492;12.134;2024-01-07T11:00:31;97673.13;;;20.08;32.18
20160;BME280;50187;50.492;12.134;2024-01-07T11:03:21;97674.44;;;20.04;32.21
20160;BME280;50187;50.492;12.134;2024-01-07T11:06:18;97672.19;;;19.99;32.24
20160;BME280;50187;50.492;12.134;2024-01-07T11:09:31;97674.28;;;20.05;32.13
20160;BME280;50187;50.492;12.134;2024-01-07T11:12:18;97671.91;;;20.02;32.24
20160;BME280;50187;50.492;12.134;2024-01-07T11:15:04;97679.84;;;20.04;32.12
20160;BME280;50187;50.492;12.134;2024-01-07T11:17:49;97674.13;;;20.07;32.35
20160;BME280;50187;50.492;12.134;2024-01-07T11:20:35;97669.06;;;20.12;32.27
20160;BME280;50187;50.492;12.134;2024-01-07T11:26:12;97681.09;;;20.18;32.35
20160;BME280;50187;50.492;12.134;2024-01-07T11:28:58;97672.53;;;20.22;32.14
20160;BME280;50187;50.492;12.134;2024-01-07T11:31:45;97676.94;;;20.23;32.03
20160;BME280;50187;50.492;12.134;2024-01-07T11:34:42;97675.91;;;20.24;32.08
20160;BME280;50187;50.492;12.134;2024-01-07T11:37:29;97673.38;;;20.23;32.11
20160;BME280;50187;50.492;12.134;2024-01-07T11:40:14;97686.38;;;20.28;32.14
20160;BME280;50187;50.492;12.134;2024-01-07T11:43:00;97693.66;;;20.27;31.77
20160;BME280;50187;50.492;12.134;2024-01-07T11:45:45;97683.34;;;20.22;31.85
20160;BME280;50187;50.492;12.134;2024-01-07T11:48:31;97691.06;;;20.17;32.06
20160;BME280;50187;50.492;12.134;2024-01-07T11:51:16;97693.09;;;20.15;32.08
20160;BME280;50187;50.492;12.134;2024-01-07T11:54:02;97693.38;;;20.12;32.09
20160;BME280;50187;50.492;12.134;2024-01-07T11:56:47;97692.88;;;20.08;32.14
20160;BME280;50187;50.492;12.134;2024-01-07T11:59:36;97704.66;;;20.07;32.04
20160;BME280;50187;50.492;12.134;2024-01-07T12:02:22;97704.31;;;20.02;32.23
20160;BME280;50187;50.492;12.134;2024-01-07T12:05:08;97712.41;;;20.02;32.19
20160;BME280;50187;50.492;12.134;2024-01-07T12:07:54;97712.53;;;20.01;32.10
20160;BME280;50187;50.492;12.134;2024-01-07T12:10:39;97711.72;;;20.00;32.22
20160;BME280;50187;50.492;12.134;2024-01-07T12:13:24;97712.53;;;20.01;32.34
20160;BME280;50187;50.492;12.134;2024-01-07T12:16:10;97710.56;;;20.03;32.35
20160;BME280;50187;50.492;12.134;2024-01-07T12:18:56;97711.94;;;20.07;32.31
20160;BME280;50187;50.492;12.134;2024-01-07T12:21:41;97715.84;;;20.13;31.93
20160;BME280;50187;50.492;12.134;2024-01-07T12:24:27;97721.75;;;20.16;32.06
20160;BME280;50187;50.492;12.134;2024-01-07T12:27:13;97717.75;;;20.20;31.84
20160;BME280;50187;50.492;12.134;2024-01-07T12:30:00;97717.22;;;20.17;32.02
20160;BME280;50187;50.492;12.134;2024-01-07T12:32:45;97708.63;;;20.21;32.08
20160;BME280;50187;50.492;12.134;2024-01-07T12:35:30;97723.53;;;20.25;32.12
20160;BME280;50187;50.492;12.134;2024-01-07T12:38:16;97722.53;;;20.27;31.83
20160;BME280;50187;50.492;12.134;2024-01-07T12:41:07;97725.38;;;20.25;31.86
20160;BME280;50187;50.492;12.134;2024-01-07T12:43:53;97720.16;;;20.23;31.74
20160;BME280;50187;50.492;12.134;2024-01-07T12:46:38;97724.31;;;20.18;31.83
20160;BME280;50187;50.492;12.134;2024-01-07T12:49:23;97729.88;;;20.16;31.76
20160;BME280;50187;50.492;12.134;2024-01-07T12:52:09;97723.09;;;20.12;31.96
20160;BME280;50187;50.492;12.134;2024-01-07T12:54:54;97727.81;;;20.10;32.07
20160;BME280;50187;50.492;12.134;2024-01-07T12:57:41;97731.50;;;20.09;31.90
20160;BME280;50187;50.492;12.134;2024-01-07T13:00:27;97736.56;;;20.04;31.97
20160;BME280;50187;50.492;12.134;2024-01-07T13:03:14;97729.63;;;20.01;32.18
20160;BME280;50187;50.492;12.134;2024-01-07T13:06:02;97738.72;;;20.00;32.19
20160;BME280;50187;50.492;12.134;2024-01-07T13:08:48;97743.13;;;20.01;32.05
20160;BME280;50187;50.492;12.134;2024-01-07T13:11:33;97737.88;;;20.00;32.14
20160;BME280;50187;50.492;12.134;2024-01-07T13:14:19;97745.66;;;20.03;32.31
20160;BME280;50187;50.492;12.134;2024-01-07T13:17:04;97747.72;;;20.09;32.21
20160;BME280;50187;50.492;12.134;2024-01-07T13:19:49;97743.69;;;20.13;32.15
20160;BME280;50187;50.492;12.134;2024-01-07T13:22:35;97758.75;;;20.16;32.02
20160;BME280;50187;50.492;12.134;2024-01-07T13:25:20;97738.66;;;20.18;32.03
20160;BME280;50187;50.492;12.134;2024-01-07T13:28:05;97750.16;;;20.20;32.21
20160;BME280;50187;50.492;12.134;2024-01-07T13:30:55;97761.34;;;20.25;31.76
20160;BME280;50187;50.492;12.134;2024-01-07T13:33:42;97768.59;;;20.25;31.86
20160;BME280;50187;50.492;12.134;2024-01-07T13:36:28;97769.81;;;20.31;31.63
20160;BME280;50187;50.492;12.134;2024-01-07T13:39:13;97779.25;;;20.27;31.96
20160;BME280;50187;50.492;12.134;2024-01-07T13:42:01;97773.13;;;20.24;31.94
20160;BME280;50187;50.492;12.134;2024-01-07T13:44:47;97779.88;;;20.20;31.90
20160;BME280;50187;50.492;12.134;2024-01-07T13:47:32;97782.22;;;20.15;31.76
20160;BME280;50187;50.492;12.134;2024-01-07T13:50:17;97784.03;;;20.15;31.88
20160;BME280;50187;50.492;12.134;2024-01-07T13:53:03;97782.50;;;20.12;31.96
20160;BME280;50187;50.492;12.134;2024-01-07T13:55:48;97790.91;;;20.09;31.97
20160;BME280;50187;50.492;12.134;2024-01-07T13:58:34;97789.53;;;20.05;32.05
20160;BME280;50187;50.492;12.134;2024-01-07T14:01:19;97789.53;;;20.05;32.07
20160;BME280;50187;50.492;12.134;2024-01-07T14:04:04;97804.91;;;20.04;32.00
20160;BME280;50187;50.492;12.134;2024-01-07T14:06:57;97809.47;;;20.04;31.95
20160;BME280;50187;50.492;12.134;2024-01-07T14:09:43;97815.84;;;20.03;32.09
20160;BME280;50187;50.492;12.134;2024-01-07T14:12:28;97818.25;;;20.06;32.07
20160;BME280;50187;50.492;12.134;2024-01-07T14:15:14;97817.09;;;20.08;32.04
20160;BME280;50187;50.492;12.134;2024-01-07T14:17:59;97812.19;;;20.12;31.90
20160;BME280;50187;50.492;12.134;2024-01-07T14:20:44;97813.91;;;20.13;31.89
20160;BME280;50187;50.492;12.134;2024-01-07T14:23:30;97814.31;;;20.18;31.63
20160;BME280;50187;50.492;12.134;2024-01-07T14:26:16;97812.28;;;20.20;31.76
20160;BME280;50187;50.492;12.134;2024-01-07T14:29:01;97826.16;;;20.25;31.88
20160;BME280;50187;50.492;12.134;2024-01-07T14:32:01;97818.75;;;20.28;31.72